Time;durP1;ratioP1;P1;durP2;ratioP2;P2;SDS_P1;SDS_P2;PMS_P1;PMS_P2;Temp;Humidity;BMP_temperature;BMP_pressure;BME280_temperature;BME280_humidity;BME280_pressure;Samples;Min_cycle;Max_cycle;Signal;HPM_P1;HPM_P2
2022/05/21 00:02:08;;;;;;;17.52;11.77;;;;;;;9.93;94.37;101868.88;5032916;28;20020;-91
2022/05/21 00:04:34;;;;;;;18.00;12.00;;;;;;;9.95;94.13;101874.78;5032418;28;20386;-91
2022/05/21 00:07:28;;;;;;;19.25;12.32;;;;;;;10.58;93.76;101965.81;5032717;28;20025;-91
2022/05/21 00:09:54;;;;;;;17.20;11.48;;;;;;;9.84;93.60;101838.31;5032981;28;20024;-92
2022/05/21 00:12:28;;;;;;;19.15;12.15;;;;;;;10.22;93.51;101884.81;5017692;28;20045;-91
2022/05/21 00:15:11;;;;;;;18.98;11.70;;;;;;;9.64;93.06;101790.16;5052635;28;20033;-92
2022/05/21 00:17:52;;;;;;;17.75;11.80;;;;;;;10.31;93.11;101900.75;5052064;28;20025;-89
2022/05/21 00:23:30;;;;;;;19.85;11.50;;;;;;;9.37;92.82;101748.38;5052803;28;20044;-90
2022/05/21 00:26:03;;;;;;;18.00;11.50;;;;;;;9.27;92.84;101730.78;5034930;28;20021;-91
2022/05/21 00:28:30;;;;;;;17.17;11.25;;;;;;;9.75;92.64;101806.00;5052390;28;20067;-91
2022/05/21 00:31:05;;;;;;;15.73;10.77;;;;;;;9.90;92.42;101826.88;5052586;28;20040;-90
2022/05/21 00:33:48;;;;;;;15.57;10.93;;;;;;;9.35;92.65;101726.97;5052433;28;20083;-91
2022/05/21 00:36:17;;;;;;;16.05;10.05;;;;;;;10.32;92.36;101883.50;5052773;28;20500;-92
2022/05/21 00:38:50;;;;;;;16.67;9.90;;;;;;;10.59;92.40;101918.41;5034466;28;20040;-91
2022/05/21 00:41:23;;;;;;;15.52;9.90;;;;;;;10.90;92.10;101966.94;5052874;28;20100;-90
2022/05/21 00:44:02;;;;;;;16.90;9.65;;;;;;;9.55;91.55;101739.00;5052992;28;20394;-91
2022/05/21 00:46:43;;;;;;;16.25;9.52;;;;;;;10.47;91.76;101887.97;5034837;28;20466;-88
2022/05/21 00:49:27;;;;;;;18.65;9.80;;;;;;;9.89;91.41;101784.75;5053154;28;20029;-89
2022/05/21 00:52:03;;;;;;;15.25;8.95;;;;;;;11.01;91.29;101970.75;5034531;28;20021;-90
2022/05/21 00:54:36;;;;;;;17.27;8.75;;;;;;;11.05;91.19;101962.81;5034484;28;20053;-86
2022/05/21 00:57:14;;;;;;;16.05;8.95;;;;;;;10.21;91.21;101834.06;5052576;28;20041;-85
2022/05/21 01:02:38;;;;;;;14.23;8.15;;;;;;;9.72;90.48;101744.22;5052403;28;20040;-91
2022/05/21 01:05:30;;;;;;;15.68;8.15;;;;;;;10.09;90.58;101793.34;5052335;28;20025;-89
2022/05/21 01:07:57;;;;;;;16.58;8.50;;;;;;;10.04;90.30;101781.50;5052752;28;20017;-86
2022/05/21 01:10:27;;;;;;;16.63;7.85;;;;;;;10.72;90.17;101887.72;5034333;28;20025;-85
2022/05/21 01:12:54;;;;;;;17.35;8.05;;;;;;;9.77;89.85;101733.72;5051519;28;20048;-86
2022/05/21 01:15:39;;;;;;;15.82;7.70;;;;;;;10.16;90.15;101789.59;5052642;28;20060;-86
2022/05/21 01:18:11;;;;;;;16.33;7.63;;;;;;;9.80;90.09;101725.00;5038130;28;20104;-91
2022/05/21 01:21:01;;;;;;;13.32;7.65;;;;;;;11.27;89.86;101967.78;5056168;28;20087;-86
2022/05/21 01:23:29;;;;;;;18.08;7.38;;;;;;;9.90;89.89;101747.72;5056202;28;20032;-91
2022/05/21 01:26:47;;;;;;;13.52;7.15;;;;;;;11.27;89.91;101957.47;5000787;28;20068;-91
2022/05/21 01:29:39;;;;;;;11.73;6.70;;;;;;;11.25;90.24;101964.47;5053916;28;20052;-91
2022/05/21 01:35:44;;;;;;;15.25;7.35;;;;;;;11.27;90.04;101959.22;4974153;28;20464;-91
2022/05/21 01:38:11;;;;;;;16.75;7.75;;;;;;;9.85;89.92;101726.47;4974644;28;20035;-86
2022/05/21 01:40:37;;;;;;;16.15;7.28;;;;;;;10.65;90.17;101865.66;4974603;28;20043;-91
2022/05/21 01:46:03;;;;;;;15.45;6.57;;;;;;;9.90;89.91;101731.41;4974801;28;20042;-87
2022/05/21 01:48:31;;;;;;;15.07;6.50;;;;;;;10.91;90.25;101896.28;4974673;28;20074;-86
2022/05/21 01:50:58;;;;;;;13.23;6.47;;;;;;;10.54;90.05;101834.31;4974493;28;20070;-88
2022/05/21 01:53:30;;;;;;;17.60;7.90;;;;;;;9.92;90.08;101733.00;4974020;28;20070;-90
2022/05/21 01:55:59;;;;;;;12.82;6.40;;;;;;;10.78;90.02;101871.06;4974358;28;20054;-90
2022/05/21 01:58:28;;;;;;;13.18;6.38;;;;;;;10.79;90.14;101871.00;4974046;28;20062;-86
2022/05/21 02:01:03;;;;;;;15.90;7.25;;;;;;;11.25;90.07;101953.28;4974523;28;20042;-86
2022/05/21 02:03:32;;;;;;;12.65;6.78;;;;;;;11.32;89.99;101965.84;4974258;28;20042;-86
2022/05/21 02:05:58;;;;;;;13.95;7.32;;;;;;;10.69;89.86;101863.75;4974053;28;20035;-87
2022/05/21 02:08:23;;;;;;;15.20;7.15;;;;;;;11.33;90.36;101967.53;4974107;28;20037;-86
2022/05/21 02:10:49;;;;;;;16.02;7.88;;;;;;;11.22;90.30;101943.09;4974226;28;20525;-86
2022/05/21 02:13:19;;;;;;;16.60;8.80;;;;;;;10.98;90.21;101889.03;5025898;28;20037;-86
2022/05/21 02:15:45;;;;;;;17.80;9.32;;;;;;;11.02;90.15;101903.50;5054731;28;20021;-88
2022/05/21 02:18:11;;;;;;;16.60;8.85;;;;;;;11.39;90.37;101972.38;5054689;28;20094;-86
2022/05/21 02:20:40;;;;;;;13.93;9.45;;;;;;;11.34;90.57;101952.84;5055114;28;20068;-86
2022/05/21 02:23:08;;;;;;;17.92;9.77;;;;;;;11.40;90.18;101978.38;5054640;28;20017;-90
2022/05/21 02:31:51;;;;;;;26.25;12.40;;;;;;;11.40;90.60;101966.28;5115566;28;20403;-87
2022/05/21 02:34:44;;;;;;;21.92;11.60;;;;;;;11.41;90.84;101965.41;5115397;28;20468;-88
2022/05/21 02:40:38;;;;;;;18.05;11.32;;;;;;;11.41;90.78;101959.41;5115337;28;20053;-86
2022/05/21 02:43:44;;;;;;;24.38;12.05;;;;;;;11.43;90.58;101954.97;5115033;28;20024;-91
2022/05/21 02:53:25;;;;;;;23.23;12.80;;;;;;;10.06;90.86;101729.81;5114890;28;20046;-87
2022/05/21 02:55:55;;;;;;;20.20;12.52;;;;;;;11.41;91.08;101955.06;5114684;28;20023;-89
2022/05/21 02:58:21;;;;;;;20.38;12.40;;;;;;;11.23;91.09;101926.66;5114562;28;20036;-89
2022/05/21 03:00:49;;;;;;;23.20;11.95;;;;;;;11.01;90.78;101894.09;5114802;28;20024;-88
2022/05/21 03:03:31;;;;;;;25.60;13.60;;;;;;;9.93;90.73;101724.38;5114646;28;20477;-89
2022/05/21 03:05:57;;;;;;;21.95;14.02;;;;;;;11.02;90.79;101887.16;5114574;28;20030;-86
2022/05/21 03:11:47;;;;;;;29.52;12.60;;;;;;;10.22;90.96;101742.84;5114443;28;20050;-85
2022/05/21 03:14:12;;;;;;;22.58;12.35;;;;;;;10.13;90.63;101732.91;5114407;28;20027;-86
2022/05/21 03:16:37;;;;;;;21.80;13.02;;;;;;;11.41;91.42;101944.72;5114393;28;20023;-86
2022/05/21 03:19:03;;;;;;;24.60;12.13;;;;;;;10.88;91.06;101860.22;5114130;28;20023;-89
2022/05/21 03:21:29;;;;;;;23.35;13.13;;;;;;;11.53;91.12;101960.53;5114326;28;20049;-86
2022/05/21 03:23:55;;;;;;;27.85;13.13;;;;;;;11.51;91.23;101952.88;5113891;28;20023;-87
2022/05/21 03:26:20;;;;;;;23.60;13.48;;;;;;;11.11;90.74;101884.97;5115097;28;20055;-86
2022/05/21 03:28:46;;;;;;;26.48;14.15;;;;;;;11.22;91.02;101905.16;5114114;28;20030;-90
2022/05/21 03:31:11;;;;;;;25.65;13.02;;;;;;;11.09;91.11;101886.78;5114300;28;20488;-87
2022/05/21 03:33:36;;;;;;;26.83;13.57;;;;;;;11.11;91.05;101886.69;5112751;28;20066;-86
2022/05/21 03:36:11;;;;;;;24.80;14.00;;;;;;;11.23;91.39;101908.56;5114170;28;20076;-84
2022/05/21 03:38:37;;;;;;;29.98;14.63;;;;;;;11.46;91.34;101949.66;5112702;28;20055;-88
2022/05/21 03:41:02;;;;;;;27.40;14.88;;;;;;;11.37;91.12;101934.56;5113835;28;20061;-89
2022/05/21 03:43:46;;;;;;;24.23;14.90;;;;;;;11.25;91.40;101910.16;5095971;28;20032;-90
2022/05/21 03:46:13;;;;;;;29.02;15.85;;;;;;;10.67;91.33;101825.06;5095668;28;20027;-90
2022/05/21 03:48:38;;;;;;;26.08;15.50;;;;;;;10.86;91.50;101849.13;5113876;28;20495;-85
2022/05/21 03:51:15;;;;;;;28.95;15.48;;;;;;;11.01;91.53;101865.66;5113857;28;20027;-89
2022/05/21 03:53:49;;;;;;;31.42;15.20;;;;;;;10.38;91.48;101772.22;5113457;28;20023;-87
2022/05/21 03:56:20;;;;;;;31.27;16.20;;;;;;;10.25;91.11;101746.13;5113791;28;20392;-90
2022/05/21 03:59:01;;;;;;;28.52;15.65;;;;;;;10.21;91.32;101735.97;5114183;28;20488;-89
2022/05/21 04:01:45;;;;;;;29.08;16.15;;;;;;;10.51;91.36;101790.53;5113720;28;20034;-91
2022/05/21 04:04:11;;;;;;;33.05;15.38;;;;;;;11.63;91.49;101966.94;5095220;28;20138;-79
2022/05/21 04:07:07;;;;;;;30.60;15.27;;;;;;;11.70;91.38;101986.41;5113359;28;20080;-89
2022/05/21 04:09:36;;;;;;;29.05;16.23;;;;;;;11.69;91.59;101979.56;5113387;28;20024;-89
2022/05/21 04:12:05;;;;;;;30.52;15.98;;;;;;;11.16;91.63;101884.75;5113498;28;20020;-90
2022/05/21 04:14:49;;;;;;;29.80;16.20;;;;;;;10.32;91.59;101750.13;5113243;28;20031;-88
2022/05/21 04:17:23;;;;;;;28.92;14.98;;;;;;;10.56;91.34;101789.41;5113839;28;20035;-90
2022/05/21 04:19:49;;;;;;;31.23;15.35;;;;;;;11.75;91.35;101982.69;5113617;28;20050;-86
2022/05/21 04:22:14;;;;;;;28.15;16.15;;;;;;;10.73;91.15;101816.22;5113509;28;20472;-87
2022/05/21 04:24:42;;;;;;;26.42;14.50;;;;;;;11.44;90.95;101929.03;5095163;28;20032;-88
2022/05/21 04:27:10;;;;;;;33.35;15.75;;;;;;;11.80;91.08;101992.88;5113066;28;20051;-87
2022/05/21 04:29:36;;;;;;;31.63;15.60;;;;;;;11.84;90.95;101996.13;5113212;28;20537;-88
2022/05/21 04:32:22;;;;;;;26.73;15.68;;;;;;;10.45;90.93;101760.69;5113279;28;20460;-88
2022/05/21 04:34:50;;;;;;;29.50;15.45;;;;;;;10.95;90.75;101837.50;5113461;28;20123;-90
2022/05/21 04:37:23;;;;;;;31.27;15.65;;;;;;;10.99;90.27;101838.19;5113438;28;20028;-90
2022/05/21 04:39:48;;;;;;;36.10;16.38;;;;;;;11.97;90.49;102004.94;5113115;28;20404;-88
2022/05/21 04:42:13;;;;;;;32.50;16.55;;;;;;;11.02;90.32;101841.47;5078301;28;20232;-87
2022/05/21 04:44:39;;;;;;;34.67;15.63;;;;;;;10.97;89.99;101834.84;5113223;28;20526;-91
2022/05/21 04:47:05;;;;;;;34.08;15.77;;;;;;;11.60;90.12;101930.84;5113068;28;20032;-91
2022/05/21 04:49:30;;;;;;;31.30;15.40;;;;;;;11.89;89.81;101976.84;5114023;28;20391;-90
2022/05/21 04:52:01;;;;;;;35.20;15.27;;;;;;;12.08;89.47;102007.81;5117353;28;20086;-90
2022/05/21 04:54:27;;;;;;;32.38;15.52;;;;;;;12.10;89.63;101997.44;5116823;28;20098;-86
2022/05/21 04:56:52;;;;;;;31.50;14.48;;;;;;;11.90;89.35;101938.88;5118278;28;20116;-85
2022/05/21 04:59:17;;;;;;;34.90;15.45;;;;;;;12.42;88.11;101996.59;5116880;28;20528;-84
2022/05/21 05:01:43;;;;;;;29.92;14.82;;;;;;;12.47;87.92;102011.88;5116861;28;20047;-85
2022/05/21 05:04:08;;;;;;;27.02;13.80;;;;;;;12.05;88.27;101932.91;5098792;28;20088;-86
2022/05/21 05:06:38;;;;;;;33.10;14.82;;;;;;;12.81;86.71;102021.34;5117017;28;20088;-85
2022/05/21 05:09:06;;;;;;;29.98;13.48;;;;;;;12.54;86.79;101984.75;5116584;28;20077;-84
2022/05/21 05:11:31;;;;;;;30.73;15.10;;;;;;;12.37;87.13;101940.75;5098648;28;20039;-86
2022/05/21 05:13:59;;;;;;;29.35;14.68;;;;;;;12.72;85.82;101988.97;5098259;28;20105;-85
2022/05/21 05:16:24;;;;;;;33.67;14.65;;;;;;;12.82;86.11;102023.84;5116967;28;20110;-86
2022/05/21 05:18:50;;;;;;;31.48;14.32;;;;;;;12.96;86.31;102030.88;5117440;28;20110;-85
2022/05/21 05:21:15;;;;;;;29.88;13.02;;;;;;;12.96;84.12;101932.34;5116732;28;20384;-87
2022/05/21 05:23:41;;;;;;;30.02;13.55;;;;;;;13.62;81.93;102035.06;5116664;28;20024;-86
2022/05/21 05:26:09;;;;;;;26.98;13.00;;;;;;;13.38;83.02;102038.13;5116186;28;20058;-86
2022/05/21 05:28:34;;;;;;;30.67;13.05;;;;;;;12.72;84.10;101955.25;5116315;28;20055;-85
2022/05/21 05:31:02;;;;;;;29.80;12.93;;;;;;;12.63;84.08;101964.38;5116211;28;20447;-86
2022/05/21 05:33:30;;;;;;;34.20;13.63;;;;;;;12.06;85.18;101901.75;5096964;28;20464;-85
2022/05/21 05:35:55;;;;;;;30.13;13.23;;;;;;;12.81;84.27;101921.06;5116246;28;20030;-86
2022/05/21 05:38:31;;;;;;;29.35;13.35;;;;;;;13.70;80.19;101892.69;5114520;28;20032;-87
2022/05/21 05:40:57;;;;;;;31.20;13.00;;;;;;;14.00;77.26;101890.88;5115985;28;20023;-87
2022/05/21 05:43:45;;;;;;;25.23;12.45;;;;;;;14.72;75.38;101841.41;5116448;28;20473;-88
2022/05/21 05:46:16;;;;;;;30.30;11.98;;;;;;;15.27;72.18;101937.50;5116036;28;20107;-87
2022/05/21 05:51:33;;;;;;;27.23;13.02;;;;;;;15.54;68.88;101828.13;5116877;22;20079;-87
2022/05/21 05:54:09;;;;;;;22.23;11.80;;;;;;;16.14;69.78;101936.91;5095317;28;20040;-86
2022/05/21 05:56:43;;;;;;;23.13;11.13;;;;;;;16.22;67.86;101866.00;5095276;28;20032;-86
2022/05/21 06:02:57;;;;;;;29.67;10.80;;;;;;;18.95;61.55;102049.38;5094575;28;20527;-88
2022/05/21 06:04:40;;;;;;;20.05;9.93;;;;;;;17.41;60.66;101839.91;5095381;28;20523;-87
2022/05/21 06:07:21;;;;;;;25.42;10.70;;;;;;;16.61;64.40;101881.41;5095211;28;20043;-86
2022/05/21 06:10:33;;;;;;;27.33;11.93;;;;;;;16.77;66.50;102011.63;5095528;28;20081;-86
2022/05/21 06:13:20;;;;;;;;;;;;;;;16.87;67.42;102057.00;5050392;28;20075;-86
2022/05/21 06:15:54;;;;;;;33.03;11.65;;;;;;;16.66;65.76;101859.41;5095436;28;19912;-88
2022/05/21 06:18:32;;;;;;;25.48;11.60;;;;;;;19.14;62.41;102054.00;5094810;28;20115;-88
2022/05/21 06:21:18;;;;;;;27.80;11.25;;;;;;;18.82;60.74;101946.63;5095567;28;20107;-85
2022/05/21 06:23:54;;;;;;;24.80;10.60;;;;;;;17.30;61.13;101863.34;5095368;28;20026;-86
2022/05/21 06:26:19;;;;;;;26.02;10.65;;;;;;;16.84;62.56;101925.94;5094584;28;20051;-89
2022/05/21 06:28:44;;;;;;;24.13;11.10;;;;;;;17.10;65.42;102072.81;5062203;23;20131;-88
2022/05/21 06:31:16;;;;;;;29.02;10.85;;;;;;;15.59;67.86;101904.16;5052514;28;20021;-88
2022/05/21 06:33:56;;;;;;;30.63;11.45;;;;;;;15.15;68.01;101862.88;5055041;28;20032;-88
2022/05/21 06:36:23;;;;;;;26.35;10.75;;;;;;;15.47;68.30;101884.97;5054798;28;20126;-88
2022/05/21 06:42:38;;;;;;;26.63;10.98;;;;;;;16.44;64.05;101886.19;5054240;28;20047;-88
2022/05/21 06:48:28;;;;;;;26.13;10.88;;;;;;;18.28;63.48;102084.16;5034937;28;20049;-88
2022/05/21 06:53:58;;;;;;;28.67;12.63;;;;;;;16.67;65.25;101987.09;4934351;29;20032;-89
2022/05/21 06:56:23;;;;;;;25.50;11.52;;;;;;;16.84;66.92;102093.75;4934831;29;20546;-89
2022/05/21 06:58:50;;;;;;;31.58;14.05;;;;;;;16.48;68.60;102091.00;4924529;29;20052;-87
2022/05/21 07:01:25;;;;;;;26.70;12.93;;;;;;;14.93;69.77;101868.59;4916090;29;20083;-83
2022/05/21 07:03:56;;;;;;;25.38;12.70;;;;;;;15.04;69.99;101909.53;4915919;29;20036;-88
2022/05/21 07:09:05;;;;;;;28.88;12.93;;;;;;;16.02;70.94;102094.91;4915872;29;20861;-90
2022/05/21 07:12:03;;;;;;;26.00;11.90;;;;;;;15.79;70.11;102072.13;4916020;29;20051;-90
2022/05/21 07:14:28;;;;;;;26.95;11.25;;;;;;;14.82;70.46;101933.47;4861877;29;20041;-92
2022/05/21 07:17:00;;;;;;;27.20;11.20;;;;;;;14.46;70.81;101849.09;4860679;29;20037;-90
2022/05/21 07:19:25;;;;;;;26.73;11.45;;;;;;;15.27;70.32;101965.31;4845209;29;20076;-91
2022/05/21 07:22:17;;;;;;;;;;;;;;;;;;;;;
2022/05/21 07:24:54;;;;;;;22.27;10.35;;;;;;;14.84;69.06;101896.03;4859258;29;20059;-89
2022/05/21 07:27:19;;;;;;;28.17;9.45;;;;;;;15.38;68.08;101986.28;4874421;29;20048;-88
2022/05/21 07:32:35;;;;;;;22.35;9.82;;;;;;;15.93;68.71;102045.19;4956796;28;20046;-87
2022/05/21 07:35:11;;;;;;;20.80;8.95;;;;;;;15.89;67.14;102035.91;5116480;23;20526;-84
2022/05/21 07:37:46;;;;;;;24.80;9.90;;;;;;;15.72;67.97;102022.22;5096156;28;20019;-83
2022/05/21 07:40:13;;;;;;;24.40;9.50;;;;;;;16.47;67.06;102123.25;5113891;28;20034;-82
2022/05/21 07:42:38;;;;;;;20.67;9.40;;;;;;;16.30;66.83;102093.06;5113576;28;20372;-88
2022/05/21 07:45:07;;;;;;;22.60;8.90;;;;;;;16.63;67.59;102126.50;5113709;28;20028;-82
2022/05/21 07:47:32;;;;;;;25.80;9.52;;;;;;;16.54;65.43;102098.44;5113677;28;20495;-80
2022/05/21 07:49:57;;;;;;;17.63;8.90;;;;;;;16.71;66.02;102118.16;5113595;28;20024;-81
2022/05/21 07:52:24;;;;;;;21.55;8.98;;;;;;;16.78;66.68;102130.69;5113670;28;20109;-79
2022/05/21 07:54:49;;;;;;;25.10;9.57;;;;;;;16.62;65.77;102114.41;5113535;28;20034;-80
2022/05/21 07:57:15;;;;;;;25.20;9.30;;;;;;;16.78;65.42;102135.06;5113185;28;20019;-85
2022/05/21 07:59:40;;;;;;;22.98;8.20;;;;;;;16.81;66.65;102099.19;5113586;28;20483;-79
2022/05/21 08:02:08;;;;;;;20.77;7.68;;;;;;;17.05;64.41;102135.78;5113656;28;20030;-85
2022/05/21 08:04:35;;;;;;;22.42;8.02;;;;;;;16.96;65.48;102135.59;5113385;28;20033;-80
2022/05/21 08:07:00;;;;;;;17.02;6.93;;;;;;;17.18;65.54;102133.13;5113374;28;20027;-79
2022/05/21 08:09:26;;;;;;;19.30;7.18;;;;;;;17.21;63.66;102099.00;5113366;28;20027;-89
2022/05/21 08:11:52;;;;;;;19.00;7.68;;;;;;;17.49;61.97;102152.69;5113124;28;20020;-81
2022/05/21 08:14:18;;;;;;;23.55;8.07;;;;;;;17.11;63.03;102130.16;5113403;28;20384;-81
2022/05/21 08:16:45;;;;;;;19.95;7.75;;;;;;;16.90;63.13;102124.63;5113525;28;20040;-82
2022/05/21 08:19:12;;;;;;;24.30;8.77;;;;;;;17.25;64.26;102154.44;5113272;28;20422;-85
2022/05/21 08:21:37;;;;;;;22.15;8.23;;;;;;;17.32;62.63;102116.53;5113317;28;20031;-82
2022/05/21 08:26:57;;;;;;;27.17;9.20;;;;;;;17.51;62.87;102158.66;5113232;28;20041;-79
2022/05/21 08:29:25;;;;;;;20.80;7.25;;;;;;;17.38;61.79;102140.41;5113058;28;20484;-82
2022/05/21 08:31:50;;;;;;;22.23;7.53;;;;;;;17.42;63.89;102149.72;5113033;28;20069;-82
2022/05/21 08:34:15;;;;;;;18.75;7.50;;;;;;;17.67;62.98;102148.78;5112866;28;20048;-84
2022/05/21 08:36:41;;;;;;;19.77;7.13;;;;;;;17.93;63.67;102139.09;5113048;28;20088;-83
2022/05/21 08:39:09;;;;;;;16.08;7.05;;;;;;;17.99;60.62;102140.41;5112751;28;20066;-86
2022/05/21 08:41:35;;;;;;;21.23;7.32;;;;;;;18.08;62.40;102139.72;5112938;28;20031;-85
2022/05/21 08:44:12;;;;;;;19.48;6.50;;;;;;;17.93;61.36;102120.78;5112898;28;20392;-86
2022/05/21 08:47:01;;;;;;;19.10;6.00;;;;;;;17.73;59.84;102129.25;5094939;28;20032;-88
2022/05/21 08:49:37;;;;;;;19.50;5.47;;;;;;;17.69;60.76;102159.97;5112909;28;20030;-89
2022/05/21 08:52:07;;;;;;;17.95;6.32;;;;;;;17.55;59.85;102135.75;5112947;28;20032;-84
2022/05/21 08:54:38;;;;;;;18.58;6.40;;;;;;;17.09;61.78;102032.00;5112900;28;20024;-82
2022/05/21 08:57:04;;;;;;;;;;;;;;;18.02;62.84;102151.47;5094880;28;20473;-83
2022/05/21 08:59:40;;;;;;;19.45;7.35;;;;;;;17.98;62.16;102121.28;5112773;28;19973;-83
2022/05/21 09:02:17;;;;;;;15.68;7.40;;;;;;;17.89;61.06;102116.72;5112707;28;20024;-85
2022/05/21 09:04:43;;;;;;;23.60;7.90;;;;;;;17.56;62.53;102101.69;5095040;28;20020;-85
2022/05/21 09:07:17;;;;;;;20.77;7.68;;;;;;;17.66;62.00;102118.38;5112992;28;20428;-82
2022/05/21 09:10:19;;;;;;;17.95;6.30;;;;;;;18.02;62.41;102132.34;5112820;28;20031;-82
2022/05/21 09:12:56;;;;;;;15.15;4.82;;;;;;;18.45;58.92;102132.59;5112448;28;20023;-85
2022/05/21 09:18:08;;;;;;;18.30;7.35;;;;;;;18.89;58.22;102131.84;5112895;28;20038;-81
2022/05/21 09:20:43;;;;;;;18.63;8.90;;;;;;;18.34;58.81;102060.16;5112566;28;20412;-82
2022/05/21 09:23:11;;;;;;;22.10;9.60;;;;;;;18.68;59.83;102132.66;5112656;28;20024;-81
2022/05/21 09:25:36;;;;;;;21.88;9.27;;;;;;;18.56;59.15;102122.13;5112572;28;20089;-83
2022/05/21 09:28:07;;;;;;;17.45;8.07;;;;;;;18.63;59.60;102140.81;5112270;28;20031;-80
2022/05/21 09:30:37;;;;;;;;;;;;;;;18.86;60.43;102139.91;5112864;28;20024;-88
2022/05/21 09:33:36;;;;;;;15.20;6.63;;;;;;;19.01;59.85;102131.84;5094386;28;19911;-85
2022/05/21 09:36:02;;;;;;;15.82;5.78;;;;;;;19.26;57.40;102130.75;5105625;28;20042;-83
2022/05/21 09:38:55;;;;;;;13.82;5.18;;;;;;;19.33;56.51;102132.75;5116264;28;20032;-87
2022/05/21 09:47:31;;;;;;;12.52;3.78;;;;;;;17.26;54.53;101958.53;5033349;28;20481;-83
2022/05/21 09:50:28;;;;;;;14.20;6.60;;;;;;;17.77;59.19;102075.81;5033324;28;20033;-84
2022/05/21 09:52:59;;;;;;;21.80;8.15;;;;;;;17.04;60.03;101964.47;5033460;28;20041;-84
2022/05/21 09:55:35;;;;;;;;;;;;;;;18.48;59.77;102153.28;5033605;28;20075;-83
2022/05/21 09:58:13;;;;;;;16.60;7.22;;;;;;;18.29;59.18;102090.25;5033051;28;20397;-76
2022/05/21 10:00:39;;;;;;;15.27;5.43;;;;;;;18.80;56.67;102116.03;5033043;28;20075;-77
2022/05/21 10:03:08;;;;;;;13.10;4.80;;;;;;;19.37;55.43;102156.91;5033173;28;20037;-76
2022/05/21 10:05:48;;;;;;;16.92;5.07;;;;;;;19.36;54.51;102148.22;5032910;28;20033;-76
2022/05/21 10:11:38;;;;;;;15.82;5.50;;;;;;;19.25;54.46;102105.50;5032890;28;20149;-82
2022/05/21 10:14:09;;;;;;;13.93;5.00;;;;;;;19.44;56.29;102137.13;5032699;28;20045;-84
2022/05/21 10:16:48;;;;;;;16.52;5.20;;;;;;;19.50;55.17;102152.38;5032624;28;20049;-82
2022/05/21 10:19:40;;;;;;;16.27;5.25;;;;;;;19.42;54.91;102152.16;5032738;28;20037;-76
2022/05/21 10:22:08;;;;;;;;;;;;;;;19.46;55.18;102154.41;5032905;28;20037;-81
2022/05/21 10:24:40;;;;;;;15.45;5.10;;;;;;;19.13;54.90;102167.53;5108490;28;19919;-79
2022/05/21 10:27:33;;;;;;;14.00;5.50;;;;;;;19.20;55.30;102119.81;5114995;28;20031;-84
2022/05/21 10:30:02;;;;;;;12.50;5.18;;;;;;;19.65;54.92;102152.97;5115162;28;20533;-78
2022/05/21 10:32:55;;;;;;;12.60;5.18;;;;;;;19.73;53.34;102147.94;5115082;28;20441;-84
2022/05/21 10:35:48;;;;;;;14.13;4.85;;;;;;;19.68;53.05;102150.94;5114916;28;20048;-81
2022/05/21 10:38:31;;;;;;;11.85;4.57;;;;;;;19.29;54.45;102160.16;5115085;28;20116;-82
2022/05/21 10:40:57;;;;;;;13.63;5.25;;;;;;;18.94;55.68;102162.06;5114687;28;20020;-79
2022/05/21 10:43:37;;;;;;;16.00;5.40;;;;;;;18.63;55.41;102169.59;5114803;28;20522;-84
2022/05/21 10:46:29;;;;;;;15.70;5.60;;;;;;;18.66;56.15;102171.19;5114843;28;20522;-83
2022/05/21 10:49:07;;;;;;;;;;;;;;;19.09;57.15;102168.75;5110676;28;20047;-78
2022/05/21 10:51:59;;;;;;;13.82;5.30;;;;;;;19.37;55.99;102121.09;5114797;28;19912;-80
2022/05/21 10:54:49;;;;;;;12.35;5.82;;;;;;;20.01;53.65;102133.41;5114655;28;20031;-79
2022/05/21 10:57:23;;;;;;;12.55;5.43;;;;;;;20.65;52.70;102156.09;5114742;28;20023;-82
2022/05/21 10:59:53;;;;;;;15.52;6.30;;;;;;;20.64;51.76;102139.50;5114334;28;20143;-79
2022/05/21 11:02:47;;;;;;;17.48;6.35;;;;;;;20.47;52.54;102150.63;5114741;28;20023;-81
2022/05/21 11:05:31;;;;;;;12.70;5.18;;;;;;;20.21;53.29;102156.22;5114608;28;20039;-78
2022/05/21 11:08:04;;;;;;;12.60;4.95;;;;;;;19.99;53.24;102158.94;5114143;28;20026;-78
2022/05/21 11:10:48;;;;;;;16.45;4.45;;;;;;;19.92;53.16;102155.97;5095979;28;20433;-76
2022/05/21 11:13:27;;;;;;;13.77;4.55;;;;;;;19.99;52.28;102174.66;5114354;28;20088;-78
2022/05/21 11:15:56;;;;;;;9.77;3.80;;;;;;;19.96;51.45;102180.16;5114267;28;20080;-77
2022/05/21 11:18:47;;;;;;;11.13;3.58;;;;;;;19.93;51.08;102180.41;5114055;28;20468;-80
2022/05/21 11:21:18;;;;;;;12.95;3.30;;;;;;;19.85;51.29;102188.06;5114360;28;20027;-79
2022/05/21 11:24:00;;;;;;;10.00;3.20;;;;;;;19.85;52.02;102173.16;5114407;28;20031;-78
2022/05/21 11:26:51;;;;;;;12.07;3.40;;;;;;;19.90;52.27;102178.03;5114021;28;20032;-81
2022/05/21 11:29:40;;;;;;;11.40;3.35;;;;;;;19.94;53.14;102175.03;5113808;28;20073;-81
2022/05/21 11:37:52;;;;;;;13.18;4.10;;;;;;;20.00;53.17;102171.09;5113894;28;20515;-80
2022/05/21 11:43:58;;;;;;;9.82;2.95;;;;;;;19.85;54.02;102165.28;5031350;28;20083;-78
2022/05/21 11:46:37;;;;;;;15.50;3.80;;;;;;;20.00;52.88;102174.53;5031076;28;20037;-80
2022/05/21 12:17:52;;;;;;;9.60;3.28;;;;;;;20.28;50.71;102154.75;5131004;27;20537;-78
2022/05/21 12:20:45;;;;;;;11.82;3.45;;;;;;;20.42;50.53;102145.72;5131331;27;20047;-78
2022/05/21 12:23:14;;;;;;;8.10;3.50;;;;;;;20.37;48.96;102144.44;5129750;28;20027;-72
2022/05/21 12:25:42;;;;;;;8.68;2.97;;;;;;;20.59;49.98;102147.78;5131053;27;20032;-77
2022/05/21 12:28:08;;;;;;;7.25;2.92;;;;;;;20.87;48.54;102145.44;5130725;27;20031;-78
2022/05/21 12:30:35;;;;;;;8.50;3.15;;;;;;;21.02;46.63;102152.00;5130712;27;20103;-78
2022/05/21 12:33:02;;;;;;;9.98;3.25;;;;;;;21.14;46.04;102150.94;5130746;27;20041;-76
2022/05/21 12:35:31;;;;;;;7.97;3.30;;;;;;;21.14;47.93;102150.94;5130918;27;20085;-79
2022/05/21 12:38:01;;;;;;;8.63;2.58;;;;;;;21.19;45.75;102156.63;5130739;27;20024;-78
2022/05/21 12:40:50;;;;;;;10.88;2.85;;;;;;;21.46;47.01;102148.16;5130580;27;20024;-82
2022/05/21 12:43:15;;;;;;;9.27;2.95;;;;;;;21.48;44.91;102145.38;5130799;27;20107;-79
2022/05/21 12:45:50;;;;;;;9.85;2.80;;;;;;;21.52;46.14;102135.41;5130390;27;20063;-80
2022/05/21 12:48:20;;;;;;;9.88;2.72;;;;;;;21.49;44.13;102144.41;5130640;27;20024;-80
2022/05/21 12:51:00;;;;;;;7.78;2.70;;;;;;;21.25;46.29;102121.13;5130643;27;20528;-81
2022/05/21 12:54:02;;;;;;;8.20;2.42;;;;;;;21.35;47.79;102147.44;5130364;27;20020;-79
2022/05/21 12:56:36;;;;;;;8.40;2.60;;;;;;;21.12;45.83;102123.13;5087287;28;20534;-83
2022/05/21 12:59:27;;;;;;;7.80;2.50;;;;;;;21.02;44.16;102149.38;5086995;28;20036;-84
2022/05/21 13:02:07;;;;;;;7.78;2.63;;;;;;;20.83;45.15;102151.91;5087215;28;20024;-78
2022/05/21 13:04:38;;;;;;;10.50;2.55;;;;;;;20.81;45.02;102149.41;5087135;28;20036;-80
2022/05/21 13:07:09;;;;;;;7.32;2.28;;;;;;;20.87;45.47;102146.28;5087301;28;20032;-79
2022/05/21 13:09:37;;;;;;;;;;;;;;;21.13;45.19;102151.06;5087635;28;20078;-84
2022/05/21 13:12:04;;;;;;;11.18;2.92;;;;;;;20.98;44.44;102140.09;5087206;28;19912;-77
2022/05/21 13:14:37;;;;;;;8.05;2.08;;;;;;;20.91;44.06;102137.16;5087025;28;20032;-77
2022/05/21 13:17:03;;;;;;;9.55;3.00;;;;;;;20.66;45.17;102108.75;5086677;28;20056;-77
2022/05/21 13:19:55;;;;;;;10.60;2.30;;;;;;;21.09;46.92;102149.66;5087146;28;20046;-75
2022/05/21 13:22:20;;;;;;;8.27;2.63;;;;;;;21.03;44.31;102148.41;5086603;28;20024;-79
2022/05/21 13:25:02;;;;;;;9.40;2.95;;;;;;;20.99;45.52;102138.31;5086948;28;20048;-79
2022/05/21 13:27:27;;;;;;;7.80;2.83;;;;;;;21.18;45.31;102144.44;5082857;28;20036;-79
2022/05/21 13:29:54;;;;;;;8.80;2.97;;;;;;;21.41;43.67;102145.09;5073267;28;20449;-77
2022/05/21 13:32:29;;;;;;;9.70;2.35;;;;;;;21.40;42.63;102111.88;5087829;28;20536;-79
2022/05/21 13:34:57;;;;;;;7.93;2.28;;;;;;;21.66;42.26;102137.66;5095513;28;20021;-80